默认 日期 大小 文件数 浏览量 最新下载 xml
​harley磁力链接相关资源由用户搜索指令自动获取,结果来源于网络,本站不存储任何资料,亦不承担任何责任,请于24小时内删除,搜索到10021个磁力,显示前4000条数据,用时4ms。
    ... .02.09.eva.davai.and.harley.rosembush.squirting.tournament.mp4": 1224717814 ... .02.09.eva.davai.and.harley.rosembush.squirting.tournament.nfo": 675 ...
创建时间: 2019-05-07 04:17:09 大小:1.16 GB 文件数量:13 热度:14 最近下载:2025-08-01 16:13:07
    ... ) (Digital) (Zone-Empire).cbr": 49302058, "Harley Quinn and Power Girl 02 ... 2.0-Empire).cbr": 44275393, "Harley Quinn and Power Girl 03 ... 2.0-Empire).cbr": 46726680, "Harley Quinn and Power Girl 04 ... 2.0-Empire).cbr": 43755823, "Harley Quinn and Power Girl 05 ...
创建时间: 2019-05-07 07:15:12 大小:268.6 MB 文件数量:6 热度:11 最近下载:2025-05-16 06:31:01
    {"GFRevenge.16.02.15.Riding.Harley.XXX.HR.MP4-KTR.mp4": 443546027}
创建时间: 2019-05-07 11:11:45 大小:423 MB 文件数量:1 热度:6 最近下载:2023-04-20 20:10:06
    {"1_001.jpeg": 271960, "1_002.jpeg": 264668, "1_003.jpeg": 249463, "1_004.jpeg": 269875, "1_005.jpeg": 283440, "1_006.jpeg": 279405, "1_007.jpeg": 265505, "1_008.jpeg": 245073, "1_009.jpeg": 263121, "1_010.jpeg": 276220, "1_011.jpeg": 269651, "1_012.jpeg": ...
创建时间: 2019-05-07 12:42:11 大小:39.48 MB 文件数量:146 热度:5 最近下载:2021-06-17 16:25:58
    {"poster.jpg": 70938, "screens.jpg": 103171, "RARBG.com.txt": 33, "Backdoor.to.Harley.Wood.3.DVDRip.mp4": 952276739}
创建时间: 2019-05-07 12:44:39 大小:908.33 MB 文件数量:4 热度:8 最近下载:2025-02-19 04:06:01
    {"sharemybf.17.11.13.harley.dean.and.lily.rader.seductive.tutor.threesome[N1C].mp4": 3046405746}
创建时间: 2019-05-10 11:03:22 大小:2.84 GB 文件数量:1 热度:24 最近下载:2025-02-26 12:45:02
    {"ss1.png": 456011, "ss2.png": 435440, "ss3.png": 450325, "ss4.png": 1752357, "(Vixen - 2160P) Kira Noir, Harley Dean - Double Trouble.mp4": 9504740635}
创建时间: 2019-05-10 17:10:05 大小:8.85 GB 文件数量:5 热度:75 最近下载:2025-07-26 07:48:01
    {"brownbunnies.17.12.15.harley.dean[N1C].mp4": 2338216657}
创建时间: 2019-05-10 18:26:45 大小:2.18 GB 文件数量:1 热度:18 最近下载:2025-08-25 13:47:01
    {"CD1": {"Folder.auCDtect.txt": 6224, "05 - Panorama (2014 Remaster).flac": 41573404, "04 - It Wasn't Me (2014 Remaster).flac": 37101352, "08 - 49th Parallel (2014 Remaster).flac": 25743673, "10 - Another Journey (2014 Remaster).flac": 21713343, "07 - Back ...
创建时间: 2019-05-11 02:23:00 大小:1.02 GB 文件数量:32 热度:4 最近下载:2025-03-11 17:47:01
    {"ecg.19.05.02.harley.mp4": 578378976}
创建时间: 2019-05-11 11:25:56 大小:551.59 MB 文件数量:1 热度:4 最近下载:2021-12-25 05:40:28
    {"RARBG.txt": 30, "justice.league.action.s01e41.harley.goes.ape.hdtv.x264-w4f.mkv": 63644973, "justice.league.action.s01e41.harley.goes.ape.hdtv.x264-w4f.nfo": 5833}
创建时间: 2019-05-12 01:24:02 大小:60.7 MB 文件数量:3 热度:4 最近下载:2021-06-17 16:25:58
    {"[TeamSkeet] - She'sNew - Harley Jade - (Fully Stacked Blonde Bombshell) [NEW January 17, 2016].mp4": 286616093}
创建时间: 2019-05-12 03:19:30 大小:273.34 MB 文件数量:1 热度:10 最近下载:2024-12-22 22:52:01
    ... DOMU!!!.url": 119, "Batman.and.Harley.Quinn.2017.PL.BRrip.XviD ...
创建时间: 2019-05-12 03:25:44 大小:561.04 MB 文件数量:6 热度:5 最近下载:2021-06-17 16:25:58
    ... , "BP_DolanWolf_HarleyEverett_540p.mp4": 303499928, "Harley Everett and Diesel O Green ... Stallone_720p.mp4": 581555776, "Surveillance Harley Everett & Nate Pierce.mp4": ... "2.mp4": 829601300}, "JalifStudios - Harley Everett & Valentin Alsina.mp4": 464303519 ...
创建时间: 2019-05-12 14:56:51 大小:8.66 GB 文件数量:183 热度:7 最近下载:2025-08-26 09:30:02
    {"RARBG.txt": 30, "RARBG_DO_NOT_MIRROR.exe": 99, "SexMex.18.05.23.Harley.Rosembush.And.Sirenita.Lesbianal.XXX.SD.MP4-KLEENEX.mp4": 310803942}
创建时间: 2019-05-12 16:07:25 大小:296.41 MB 文件数量:3 热度:12 最近下载:2025-08-08 01:18:02
    {"booty_squad_big.mp4": 379308779}
创建时间: 2019-05-12 20:35:23 大小:361.74 MB 文件数量:1 热度:3 最近下载:2021-06-17 16:25:58
    {"Nikkis in Control by Nikki Harley Kisa.mp4": 1471940783, "Nikkis in Control by Nikki Harley Kisa.Screenthumb_[12_07_17_19.50.51].jpg": 160334}
创建时间: 2019-05-13 02:49:55 大小:1.37 GB 文件数量:2 热度:8 最近下载:2025-08-21 21:24:01
    {"RARBG.com.txt": 34, "tgs.15.12.16.harley.jade.mp4": 1140335323, "tgs.15.12.16.harley.jade.nfo": 5192}
创建时间: 2019-05-13 03:48:32 大小:1.06 GB 文件数量:3 热度:12 最近下载:2025-04-01 02:59:02
    {"[RealityKings] - MonsterCurves - Harley Jade - Harleys Hall Pass [NEW June 11, 2017].mp4": 252874898}
创建时间: 2019-05-13 14:50:13 大小:241.16 MB 文件数量:1 热度:8 最近下载:2024-11-16 15:26:02
    {"Provided by torrentgalaxy.org .nfo": 691, "SexMex.18.05.23.Harley.Rosembush.And.Sirenita.Lesbianal.XXX.720p.WEB.x264-GalaXXXy.mkv": 383966916}
创建时间: 2019-05-14 01:56:23 大小:366.18 MB 文件数量:2 热度:8 最近下载:2025-08-12 19:45:02